createdAt,value
2016-08-25T03:01:07.614Z,53.24
2016-08-25T03:01:33.242Z,53.44
2016-08-25T03:01:58.818Z,52.95
2016-08-25T03:02:24.387Z,53.05
2016-08-25T03:02:49.969Z,53.44
2016-08-25T03:03:15.525Z,52.86
2016-08-25T03:03:41.080Z,53.05
2016-08-25T03:04:06.667Z,53.15
2016-08-25T03:04:32.229Z,52.95
2016-08-25T03:04:57.791Z,53.44
2016-08-25T03:05:23.365Z,53.44
2016-08-25T03:05:48.993Z,53.44
2016-08-25T03:06:14.562Z,53.44
2016-08-25T03:06:40.132Z,52.86
2016-08-25T03:07:05.714Z,53.44
2016-08-25T03:07:31.287Z,53.34
2016-08-25T03:07:56.858Z,53.44
2016-08-25T03:08:22.435Z,53.44
2016-08-25T03:08:47.994Z,52.86
2016-08-25T03:09:13.596Z,53.44
2016-08-25T03:09:39.191Z,52.86
2016-08-25T03:10:04.797Z,53.53
2016-08-25T03:10:30.417Z,53.05
2016-08-25T03:10:55.984Z,53.05
2016-08-25T03:11:21.555Z,53.24
2016-08-25T03:11:47.104Z,53.24
2016-08-25T03:12:12.669Z,53.24
2016-08-25T03:12:38.221Z,53.24
2016-08-25T03:13:03.867Z,53.24
2016-08-25T03:13:29.594Z,53.24
2016-08-25T03:13:55.156Z,53.44
2016-08-25T03:14:20.723Z,52.66
2016-08-25T03:14:46.253Z,52.76
2016-08-25T03:15:11.803Z,52.66
2016-08-25T03:15:37.355Z,53.24
2016-08-25T03:16:02.895Z,53.34
2016-08-25T03:16:28.428Z,53.34
2016-08-25T03:16:53.986Z,53.34
2016-08-25T03:17:19.544Z,52.66
2016-08-25T03:17:45.076Z,53.24
2016-08-25T03:18:10.608Z,53.34
2016-08-25T03:18:36.160Z,53.44
2016-08-25T03:19:01.707Z,53.24
2016-08-25T03:19:27.248Z,52.66
2016-08-25T03:19:52.798Z,53.05
2016-08-25T03:20:18.452Z,53.05
2016-08-25T03:21:26.786Z,53.24
2016-08-25T03:21:52.335Z,53.24
2016-08-25T03:22:17.897Z,53.44
2016-08-25T03:22:43.457Z,53.34
2016-08-25T03:23:09.115Z,53.24
2016-08-25T03:23:34.701Z,53.44
2016-08-25T03:24:00.244Z,52.66
2016-08-25T03:24:25.807Z,53.34
2016-08-25T03:24:51.366Z,52.66
2016-08-25T03:25:16.936Z,53.34
2016-08-25T03:25:42.506Z,53.44
2016-08-25T03:26:08.071Z,53.05
2016-08-25T03:26:33.637Z,53.34
2016-08-25T03:26:59.207Z,53.34
2016-08-25T03:27:24.773Z,53.34
2016-08-25T03:27:50.336Z,53.24
2016-08-25T03:28:15.897Z,52.66
2016-08-25T03:28:41.462Z,53.34
2016-08-25T03:29:07.025Z,52.76
2016-08-25T03:29:32.586Z,53.24
2016-08-25T03:29:58.203Z,53.24
2016-08-25T03:30:23.878Z,52.66
2016-08-25T03:30:49.440Z,53.24
2016-08-25T03:31:15.068Z,52.76
2016-08-25T03:31:40.626Z,52.95
2016-08-25T03:32:06.260Z,53.34
2016-08-25T03:32:31.829Z,53.44
2016-08-25T03:32:57.389Z,53.44
2016-08-25T03:33:22.933Z,53.44
2016-08-25T03:33:48.485Z,53.44
2016-08-25T03:34:14.133Z,53.15
2016-08-25T03:34:39.706Z,53.34
2016-08-25T03:35:05.258Z,53.05
2016-08-25T03:35:30.909Z,53.34
2016-08-25T03:35:56.489Z,53.24
2016-08-25T03:36:22.034Z,53.34
2016-08-25T03:36:47.602Z,52.86
2016-08-25T03:37:13.164Z,53.44
2016-08-25T03:37:38.724Z,53.44
2016-08-25T03:38:04.305Z,52.66
2016-08-25T03:38:29.878Z,53.05
2016-08-25T03:38:55.475Z,53.44
2016-08-25T03:39:21.051Z,52.86
2016-08-25T03:39:46.617Z,53.34
2016-08-25T03:40:12.258Z,53.44
2016-08-25T03:40:37.801Z,52.86
2016-08-25T03:41:03.386Z,53.44
2016-08-25T03:41:28.946Z,53.44
2016-08-25T03:41:54.499Z,53.44
2016-08-25T03:42:20.058Z,53.05
2016-08-25T03:42:45.610Z,53.24
2016-08-25T03:43:11.188Z,53.44
2016-08-25T03:43:36.750Z,53.44
2016-08-25T03:44:02.316Z,52.76
2016-08-25T03:44:27.908Z,53.44
2016-08-25T03:44:53.472Z,53.24
2016-08-25T03:45:19.109Z,53.34
2016-08-25T03:45:44.767Z,52.95
2016-08-25T03:46:10.354Z,53.44
2016-08-25T03:46:35.923Z,53.44
2016-08-25T03:47:02.440Z,53.05
2016-08-25T03:47:28.005Z,53.44
2016-08-25T03:47:53.574Z,53.44
2016-08-25T03:48:19.134Z,53.44
2016-08-25T03:48:44.705Z,53.05
2016-08-25T03:49:10.317Z,53.34
2016-08-25T03:49:35.875Z,53.44
2016-08-25T03:50:01.484Z,52.86
2016-08-25T03:50:27.117Z,52.95
2016-08-25T03:50:52.704Z,52.86
2016-08-25T03:51:18.344Z,53.44
2016-08-25T03:51:43.898Z,53.44
2016-08-25T03:52:09.489Z,53.05
2016-08-25T03:52:35.026Z,53.34
2016-08-25T03:53:00.576Z,53.44
2016-08-25T03:53:26.151Z,53.34
2016-08-25T03:53:51.732Z,53.44
2016-08-25T03:54:17.288Z,53.15
2016-08-25T03:54:42.857Z,52.86
2016-08-25T03:55:08.429Z,53.05
2016-08-25T03:55:33.993Z,53.34
2016-08-25T03:55:59.546Z,52.86
2016-08-25T03:56:25.114Z,53.44
2016-08-25T03:56:50.688Z,53.34
2016-08-25T03:57:16.332Z,53.34
2016-08-25T03:57:41.925Z,53.34
2016-08-25T03:58:07.493Z,53.44
2016-08-25T03:58:33.064Z,53.15
2016-08-25T03:58:58.744Z,53.34
2016-08-25T03:59:24.470Z,53.34
2016-08-25T03:59:50.025Z,53.34
2016-08-25T04:00:15.597Z,53.44
2016-08-25T04:00:41.149Z,53.34
2016-08-25T04:01:06.736Z,52.86
2016-08-25T04:01:32.478Z,53.05
2016-08-25T04:01:58.051Z,53.44
2016-08-25T04:02:23.795Z,52.86
2016-08-25T04:02:49.363Z,53.05
2016-08-25T04:03:14.943Z,53.24
2016-08-25T04:03:40.521Z,52.66
2016-08-25T04:04:06.090Z,53.24
2016-08-25T04:04:31.654Z,53.24
2016-08-25T04:04:57.208Z,52.66
2016-08-25T04:05:22.743Z,53.24
2016-08-25T04:05:48.318Z,53.24
2016-08-25T04:06:13.946Z,53.44
2016-08-25T04:06:39.511Z,53.15
2016-08-25T04:07:05.076Z,53.24
2016-08-25T04:07:30.627Z,52.76
2016-08-25T04:07:56.217Z,53.44
2016-08-25T04:08:21.807Z,52.86
2016-08-25T04:08:47.342Z,52.66
2016-08-25T04:09:12.894Z,52.76
2016-08-25T04:09:38.546Z,52.76
2016-08-25T04:10:04.114Z,52.95
2016-08-25T04:10:29.684Z,52.76
2016-08-25T04:10:55.269Z,52.76
2016-08-25T04:11:20.856Z,52.66
2016-08-25T04:11:46.456Z,52.66
2016-08-25T04:12:12.018Z,52.86
2016-08-25T04:12:37.605Z,52.76
2016-08-25T04:13:03.158Z,52.76
2016-08-25T04:13:28.740Z,52.56
2016-08-25T04:13:54.306Z,52.95
2016-08-25T04:14:19.877Z,52.66
2016-08-25T04:14:45.459Z,52.86
2016-08-25T04:15:11.131Z,52.76
2016-08-25T04:15:36.700Z,52.56
2016-08-25T04:16:50.156Z,52.66
2016-08-25T04:18:57.684Z,52.66
2016-08-25T04:19:50.653Z,52.66
2016-08-25T04:20:16.242Z,52.47
2016-08-25T04:20:41.797Z,52.47
2016-08-25T04:21:07.398Z,52.47
2016-08-25T04:21:33.015Z,52.47
2016-08-25T04:21:58.682Z,52.86
2016-08-25T04:22:24.187Z,52.47
2016-08-25T04:22:49.773Z,52.28
2016-08-25T04:23:15.342Z,52.28
2016-08-25T04:23:40.904Z,52.47
2016-08-25T04:24:06.454Z,52.47
2016-08-25T04:24:32.085Z,52.37
2016-08-25T04:24:57.645Z,52.47
2016-08-25T04:25:23.211Z,52.66
2016-08-25T04:25:48.887Z,52.56
2016-08-25T04:26:14.451Z,52.76
2016-08-25T04:26:40.023Z,52.56
2016-08-25T04:27:05.712Z,52.18
2016-08-25T04:27:31.263Z,52.18
2016-08-25T04:27:56.828Z,52.28
2016-08-25T04:28:22.390Z,52.37
2016-08-25T04:28:47.947Z,52.18
2016-08-25T04:29:13.527Z,52.18
2016-08-25T04:29:39.086Z,52.37
2016-08-25T04:30:04.662Z,52.47
2016-08-25T04:30:30.228Z,52.47
2016-08-25T04:30:55.895Z,52.37
2016-08-25T04:31:21.466Z,52.28
2016-08-25T04:31:47.030Z,52.56
2016-08-25T04:32:12.609Z,52.18
2016-08-25T04:32:38.256Z,52.47
2016-08-25T04:33:03.806Z,52.37
2016-08-25T04:33:29.391Z,52.37
2016-08-25T04:33:54.953Z,52.47
2016-08-25T04:34:20.543Z,52.56
2016-08-25T04:34:46.132Z,52.56
2016-08-25T04:35:11.691Z,52.37
2016-08-25T04:35:37.324Z,52.37
2016-08-25T04:36:02.879Z,52.28
2016-08-25T04:36:28.437Z,52.47
2016-08-25T04:36:54.034Z,52.56
2016-08-25T04:37:19.593Z,52.56
2016-08-25T04:37:45.198Z,52.47
2016-08-25T04:38:10.755Z,52.76
2016-08-25T04:38:36.506Z,52.56
2016-08-25T04:39:02.087Z,52.28
2016-08-25T04:39:27.642Z,52.56
2016-08-25T04:39:53.198Z,52.66
2016-08-25T04:40:51.387Z,52.66
2016-08-25T04:41:17.003Z,52.56
2016-08-25T04:41:42.557Z,52.66
2016-08-25T04:42:08.166Z,52.37
2016-08-25T04:42:33.775Z,52.37
2016-08-25T04:42:59.366Z,52.18
2016-08-25T04:43:24.954Z,52.28
2016-08-25T04:43:50.526Z,52.37
2016-08-25T04:44:16.091Z,52.37
2016-08-25T04:44:41.658Z,52.18
2016-08-25T04:45:07.218Z,52.28
2016-08-25T04:45:32.784Z,52.66
2016-08-25T04:45:58.362Z,52.28
2016-08-25T04:46:23.934Z,52.28
2016-08-25T04:46:49.535Z,52.08
2016-08-25T04:47:15.155Z,52.28
2016-08-25T04:47:40.693Z,52.56
2016-08-25T04:48:06.255Z,52.08
2016-08-25T04:48:31.828Z,52.18
2016-08-25T04:48:57.384Z,52.37
2016-08-25T04:49:22.946Z,51.89
2016-08-25T04:49:48.515Z,52.08
2016-08-25T04:50:14.078Z,52.18
2016-08-25T04:50:39.626Z,52.08
2016-08-25T04:51:05.283Z,52.28
2016-08-25T04:51:30.839Z,52.28
2016-08-25T04:51:56.424Z,52.08
2016-08-25T04:52:22.002Z,52.18
2016-08-25T04:52:47.618Z,52.18
2016-08-25T04:53:13.274Z,52.08
2016-08-25T04:53:38.823Z,52.08
2016-08-25T04:54:47.233Z,51.98
2016-08-25T04:55:12.988Z,52.37
2016-08-25T04:55:38.609Z,52.18
2016-08-25T04:56:04.282Z,52.18
2016-08-25T04:56:29.861Z,52.18
2016-08-25T04:56:55.456Z,52.08
2016-08-25T04:57:21.019Z,52.08
2016-08-25T04:57:46.595Z,52.28
2016-08-25T04:58:12.155Z,52.08
2016-08-25T04:58:37.803Z,52.08
2016-08-25T04:59:03.435Z,51.98
2016-08-25T04:59:28.991Z,52.18
2016-08-25T04:59:54.564Z,51.79
2016-08-25T05:00:20.150Z,51.98
2016-08-25T05:00:45.763Z,52.28
2016-08-25T05:01:11.309Z,51.79
2016-08-25T05:01:36.888Z,52.28
2016-08-25T05:02:02.588Z,52.28
2016-08-25T05:02:28.177Z,52.28
2016-08-25T05:03:41.752Z,48
2016-08-25T05:04:07.324Z,47.4
2016-08-25T05:04:33.065Z,47.4
2016-08-25T05:04:58.725Z,47.2
2016-08-25T05:05:24.275Z,47.4
2016-08-25T05:05:49.880Z,47.2
2016-08-25T05:06:15.455Z,47.02
2016-08-25T05:06:41.026Z,47.2
2016-08-25T05:07:06.625Z,47.4
2016-08-25T05:07:32.208Z,47.02
2016-08-25T05:07:57.751Z,47.5
2016-08-25T05:08:23.316Z,47.2
2016-08-25T05:08:48.904Z,47.5
2016-08-25T05:09:14.482Z,47.5
2016-08-25T05:09:40.063Z,47.38
2016-08-25T05:10:05.626Z,47.4
2016-08-25T05:10:31.252Z,47.57
2016-08-25T05:10:56.865Z,47.47
2016-08-25T05:11:22.419Z,47.5
2016-08-25T05:11:47.951Z,47.5
2016-08-25T05:12:13.553Z,47.57
2016-08-25T05:12:39.125Z,47.57
2016-08-25T05:13:04.674Z,47.57
2016-08-25T05:13:30.236Z,47.86
2016-08-25T05:13:55.801Z,47.96
2016-08-25T05:14:21.382Z,47.96
2016-08-25T05:14:47.016Z,47.77
2016-08-25T05:15:12.562Z,47.57
2016-08-25T05:15:38.125Z,48.25
2016-08-25T05:16:03.710Z,48.25
2016-08-25T05:16:29.251Z,48.25
2016-08-25T05:16:54.825Z,48.15
2016-08-25T05:17:20.438Z,48.15
2016-08-25T05:17:46.005Z,48.25
2016-08-25T05:18:11.568Z,48.15
2016-08-25T05:18:37.123Z,47.96
2016-08-25T05:19:02.680Z,48.15
2016-08-25T05:19:28.233Z,48.35
2016-08-25T05:19:53.809Z,48.25
2016-08-25T05:20:19.364Z,47.96
2016-08-25T05:20:44.954Z,47.86
2016-08-25T05:21:10.541Z,48.15
2016-08-25T05:21:36.112Z,47.86
2016-08-25T05:22:01.705Z,48.15
2016-08-25T05:22:27.265Z,48.06
2016-08-25T05:22:52.816Z,48.15
2016-08-25T05:23:18.365Z,48.25
2016-08-25T05:23:43.951Z,47.96
2016-08-25T05:24:09.509Z,48.06
2016-08-25T05:24:35.143Z,47.96
2016-08-25T05:25:00.723Z,48.15
2016-08-25T05:25:26.361Z,47.77
2016-08-25T05:25:51.952Z,47.96
2016-08-25T05:26:17.544Z,48.15
2016-08-25T05:26:43.110Z,48.25
2016-08-25T05:27:08.748Z,47.94
2016-08-25T05:27:34.336Z,47.86
2016-08-25T05:28:27.328Z,48.13
2016-08-25T05:28:52.955Z,48.13
2016-08-25T05:29:45.985Z,47.94
2016-08-25T05:30:11.564Z,48.13
2016-08-25T05:30:37.135Z,48.32
2016-08-25T05:31:02.711Z,48.42
2016-08-25T05:31:28.293Z,48.22
2016-08-25T05:31:53.872Z,48.52
2016-08-25T05:32:19.459Z,48.61
2016-08-25T05:32:45.144Z,48.22
2016-08-25T05:33:10.726Z,48.71
2016-08-25T05:33:36.404Z,48.22
2016-08-25T05:34:01.977Z,48.52
2016-08-25T05:34:27.535Z,48.42
2016-08-25T05:34:53.132Z,48.32
2016-08-25T05:35:18.733Z,48.32
2016-08-25T05:35:44.312Z,48.03
2016-08-25T05:36:09.882Z,48.22
2016-08-25T05:36:35.451Z,48.03
2016-08-25T05:37:01.108Z,48.32
2016-08-25T05:37:26.728Z,48.52
2016-08-25T05:37:52.288Z,48.22
2016-08-25T05:38:17.842Z,48.22
2016-08-25T05:38:43.416Z,48.22
2016-08-25T05:39:08.955Z,48.71
2016-08-25T05:39:34.527Z,48.22
2016-08-25T05:40:00.091Z,48.32
2016-08-25T05:40:25.719Z,48.61
2016-08-25T05:40:51.265Z,48.71
2016-08-25T05:41:16.842Z,48.9
2016-08-25T05:41:42.394Z,48.81
2016-08-25T05:42:07.947Z,48.61
2016-08-25T05:42:33.500Z,48.61
2016-08-25T05:42:59.807Z,48.71
2016-08-25T05:43:25.378Z,48.71
2016-08-25T05:43:50.948Z,48.42
2016-08-25T05:44:16.651Z,48.71
2016-08-25T05:44:42.222Z,48.42
2016-08-25T05:45:07.784Z,48.42
2016-08-25T05:45:33.315Z,48.71
2016-08-25T05:45:58.853Z,48.52
2016-08-25T05:46:24.455Z,49
2016-08-25T05:46:50.029Z,48.71
2016-08-25T05:47:15.605Z,48.81
2016-08-25T05:47:41.178Z,48.61
2016-08-25T05:48:54.580Z,48.52
2016-08-25T05:51:01.917Z,48.81
2016-08-25T05:51:27.574Z,48.61
2016-08-25T05:51:53.231Z,48.9
2016-08-25T05:52:18.785Z,48.81
2016-08-25T05:52:44.368Z,49
2016-08-25T05:53:09.974Z,48.61
2016-08-25T05:53:42.423Z,48.71
2016-08-25T05:54:08.012Z,48.81
2016-08-25T05:54:34.219Z,49.1
2016-08-25T05:54:59.786Z,49
2016-08-25T05:55:25.375Z,49.1
2016-08-25T05:55:51.558Z,49.1
2016-08-25T05:56:17.167Z,49
2016-08-25T05:56:43.407Z,49.29
2016-08-25T05:57:41.513Z,49
2016-08-25T05:58:07.085Z,49.29
2016-08-25T05:58:32.653Z,49
2016-08-25T05:58:58.223Z,49.19
2016-08-25T05:59:23.809Z,49.19
2016-08-25T05:59:49.424Z,49.17
2016-08-25T06:00:14.997Z,49.56
2016-08-25T06:00:40.566Z,49.46
2016-08-25T06:01:43.758Z,49.37
2016-08-25T06:02:09.327Z,49.46
2016-08-25T06:02:34.915Z,49.37
2016-08-25T06:03:00.487Z,49.19
2016-08-25T06:03:26.040Z,49.37
2016-08-25T06:03:51.601Z,49.29
2016-08-25T06:04:17.175Z,49.75
2016-08-25T06:04:42.731Z,49.27
2016-08-25T06:05:08.506Z,49.77
2016-08-25T06:05:34.103Z,49.68
2016-08-25T06:05:59.660Z,49.58
2016-08-25T06:06:25.326Z,49.49
2016-08-25T06:06:50.909Z,49.56
2016-08-25T06:07:16.472Z,49.46
2016-08-25T06:07:42.016Z,49.39
2016-08-25T06:08:54.315Z,49.65
2016-08-25T06:09:19.874Z,49.58
2016-08-25T06:09:45.474Z,49.29
2016-08-25T06:10:11.034Z,49.27
2016-08-25T06:10:36.605Z,49.77
2016-08-25T06:11:02.525Z,49.85
2016-08-25T06:11:28.076Z,49.46
2016-08-25T06:11:54.344Z,49.27
2016-08-25T06:12:19.911Z,49.85
2016-08-25T06:12:46.152Z,49.65
2016-08-25T06:13:11.704Z,49.75
2016-08-25T06:13:37.391Z,49.39
2016-08-25T06:14:03.505Z,49.56
2016-08-25T06:14:29.086Z,49.75
2016-08-25T06:14:55.387Z,49.75
2016-08-25T06:15:21.025Z,49.39
2016-08-25T06:15:46.587Z,49.46
2016-08-25T06:16:12.650Z,49.58
2016-08-25T06:16:38.208Z,49.39
2016-08-25T06:17:04.427Z,49.49
2016-08-25T06:17:29.997Z,49.37
2016-08-25T06:17:56.247Z,49.29
2016-08-25T06:18:21.805Z,49.37
2016-08-25T06:18:47.385Z,49.27
2016-08-25T06:19:13.589Z,49.46
2016-08-25T06:19:39.142Z,49.37
2016-08-25T06:20:47.575Z,50.33
2016-08-25T06:21:13.128Z,50.14
2016-08-25T06:21:38.733Z,49.75
2016-08-25T06:22:04.296Z,50.33
2016-08-25T06:22:29.853Z,50.43
2016-08-25T06:22:55.436Z,50.33
2016-08-25T06:23:21.002Z,50.33
2016-08-25T06:23:46.655Z,50.24
2016-08-25T06:24:12.246Z,50.43
2016-08-25T06:24:37.797Z,50.52
2016-08-25T06:25:03.365Z,50.43
2016-08-25T06:25:28.939Z,50.14
2016-08-25T06:25:54.497Z,49.85
2016-08-25T06:26:20.084Z,49.75
2016-08-25T06:26:45.794Z,49.65
2016-08-25T06:27:11.354Z,49.85
2016-08-25T06:27:36.932Z,50.24
2016-08-25T06:28:02.495Z,50.43
2016-08-25T06:28:28.046Z,50.43
2016-08-25T06:28:53.601Z,50.43
2016-08-25T06:29:19.176Z,50.04
2016-08-25T06:29:44.727Z,50.43
2016-08-25T06:30:10.281Z,50.43
2016-08-25T06:30:35.846Z,49.75
2016-08-25T06:31:01.498Z,49.75
2016-08-25T06:31:27.081Z,49.85
2016-08-25T06:31:52.641Z,49.95
2016-08-25T06:32:18.199Z,50.52
2016-08-25T06:32:43.754Z,50.52
2016-08-25T06:33:09.300Z,50.43
2016-08-25T06:33:34.855Z,50.24
2016-08-25T06:34:00.435Z,50.52
2016-08-25T06:34:26.021Z,50.33
2016-08-25T06:34:51.558Z,50.24
2016-08-25T06:35:17.158Z,50.33
2016-08-25T06:35:42.710Z,50.52
2016-08-25T06:36:08.255Z,50.24
2016-08-25T06:36:33.786Z,50.24
2016-08-25T06:36:59.313Z,50.33
2016-08-25T06:37:24.910Z,50.04
2016-08-25T06:37:50.462Z,50.07
2016-08-25T06:38:16.008Z,50.43
2016-08-25T06:38:41.541Z,49.95
2016-08-25T06:39:07.091Z,50.43
2016-08-25T06:39:32.651Z,50.45
2016-08-25T06:39:58.193Z,50.33
2016-08-25T06:40:23.777Z,50.43
2016-08-25T06:40:49.329Z,50.07
2016-08-25T06:41:14.891Z,50.33
2016-08-25T06:41:40.449Z,50.24
2016-08-25T06:42:06.096Z,50.16
2016-08-25T06:42:31.666Z,50.43
2016-08-25T06:42:57.226Z,50.24
2016-08-25T06:43:22.863Z,50.43
2016-08-25T06:43:48.417Z,50.26
2016-08-25T06:44:13.983Z,50.43
2016-08-25T06:44:39.542Z,50.24
2016-08-25T06:45:05.137Z,50.43
2016-08-25T06:45:30.713Z,50.26
2016-08-25T06:45:56.277Z,50.04
2016-08-25T06:46:21.829Z,50.33
2016-08-25T06:46:47.395Z,50.07
2016-08-25T06:47:13.076Z,50.24
2016-08-25T06:47:38.653Z,50.24
2016-08-25T06:48:04.224Z,50.26
2016-08-25T06:48:29.877Z,50.33
2016-08-25T06:48:55.429Z,50.26
2016-08-25T06:49:21.043Z,50.26
2016-08-25T06:49:46.596Z,50.26
2016-08-25T06:50:12.165Z,50.62
2016-08-25T06:50:37.737Z,50.65
2016-08-25T06:51:03.301Z,50.74
2016-08-25T06:51:28.864Z,50.82
2016-08-25T06:51:54.490Z,50.43
2016-08-25T06:52:20.048Z,50.45
2016-08-25T06:52:45.618Z,50.43
2016-08-25T06:53:11.191Z,50.43
2016-08-25T06:53:36.749Z,50.33
2016-08-25T06:54:02.301Z,50.26
2016-08-25T06:54:27.829Z,50.72
2016-08-25T06:54:53.379Z,50.72
2016-08-25T06:55:18.925Z,50.82
2016-08-25T06:55:44.502Z,50.82
2016-08-25T06:56:10.197Z,50.82
2016-08-25T06:56:35.774Z,50.72
2016-08-25T06:57:01.451Z,50.82
2016-08-25T06:57:27.005Z,50.62
2016-08-25T06:57:52.566Z,50.62
2016-08-25T06:58:18.213Z,50.62
2016-08-25T06:58:43.798Z,51.3
2016-08-25T06:59:09.349Z,51.4
2016-08-25T06:59:34.900Z,50.92
2016-08-25T07:00:00.554Z,50.82
2016-08-25T07:00:26.115Z,51.01
2016-08-25T07:00:51.690Z,50.72
2016-08-25T07:01:17.250Z,51.01
2016-08-25T07:01:42.808Z,50.92
2016-08-25T07:02:08.346Z,50.89
2016-08-25T07:02:33.986Z,51.18
2016-08-25T07:02:59.527Z,51.86
2016-08-25T07:03:25.116Z,51.66
2016-08-25T07:03:50.669Z,51.95
2016-08-25T07:04:16.240Z,51.56
2016-08-25T07:04:41.819Z,52.05
2016-08-25T07:05:55.223Z,51.76
2016-08-25T07:06:20.792Z,51.66
2016-08-25T07:06:46.334Z,52.14
2016-08-25T07:07:12.098Z,52.14
2016-08-25T07:07:37.671Z,51.86
2016-08-25T07:08:03.352Z,51.95
2016-08-25T07:08:28.956Z,51.86
2016-08-25T07:08:54.606Z,51.66
2016-08-25T07:09:20.153Z,51.37
2016-08-25T07:09:45.713Z,51.76
2016-08-25T07:10:11.418Z,51.78
2016-08-25T07:10:37.013Z,51.98
2016-08-25T07:11:02.573Z,51.95
2016-08-25T07:11:28.145Z,51.86
2016-08-25T07:11:53.736Z,51.5
2016-08-25T07:12:19.288Z,51.59
2016-08-25T07:12:44.835Z,51.78
2016-08-25T07:13:58.443Z,51.4
2016-08-25T07:14:24.008Z,51.5
2016-08-25T07:14:49.574Z,51.3
2016-08-25T07:15:15.150Z,51.5
2016-08-25T07:15:40.742Z,51.3
2016-08-25T07:16:06.301Z,51.66
2016-08-25T07:16:31.851Z,51.86
2016-08-25T07:17:45.220Z,51.98
2016-08-25T07:18:43.278Z,51.78
2016-08-25T07:19:08.919Z,51.78
2016-08-25T07:19:34.486Z,51.98
2016-08-25T07:20:00.067Z,51.59
2016-08-25T07:20:25.629Z,51.3
2016-08-25T07:20:51.198Z,51.59
2016-08-25T07:21:16.762Z,51.1
2016-08-25T07:21:42.406Z,51.1
2016-08-25T07:22:07.977Z,51.1
2016-08-25T07:22:33.524Z,51.1
2016-08-25T07:22:59.083Z,51.01
2016-08-25T07:23:24.656Z,50.92
2016-08-25T07:23:50.210Z,51.04
2016-08-25T07:24:15.770Z,51.1
2016-08-25T07:25:29.237Z,51.1
2016-08-25T07:25:54.873Z,51.1
2016-08-25T07:26:20.444Z,50.92
2016-08-25T07:26:46.022Z,51.1
2016-08-25T07:27:11.661Z,51.1
2016-08-25T07:27:37.225Z,51.1
2016-08-25T07:28:02.789Z,51.32
2016-08-25T07:28:28.378Z,51.23
2016-08-25T07:28:54.029Z,51.01
2016-08-25T07:29:19.620Z,51.32
2016-08-25T07:29:45.172Z,50.94
2016-08-25T07:30:10.833Z,50.82
2016-08-25T07:30:36.400Z,50.82
2016-08-25T07:31:01.984Z,50.74
2016-08-25T07:31:27.749Z,50.92
2016-08-25T07:31:53.418Z,50.92
2016-08-25T07:32:18.978Z,50.92
2016-08-25T07:32:44.554Z,50.94
2016-08-25T07:33:10.169Z,50.84
2016-08-25T07:33:35.722Z,50.94
2016-08-25T07:34:01.286Z,51.13
2016-08-25T07:34:26.845Z,51.04
2016-08-25T07:34:52.398Z,51.04
2016-08-25T07:35:17.991Z,50.94
2016-08-25T07:35:43.627Z,50.84
2016-08-25T07:36:09.179Z,51.04
2016-08-25T07:36:34.777Z,50.74
2016-08-25T07:37:00.317Z,50.94
2016-08-25T07:37:25.868Z,50.84
2016-08-25T07:37:51.487Z,51.04
2016-08-25T07:38:17.051Z,50.74
2016-08-25T07:38:42.619Z,50.94
2016-08-25T07:39:08.172Z,51.04
2016-08-25T07:39:33.747Z,50.74
2016-08-25T07:39:59.302Z,51.04
2016-08-25T07:40:24.886Z,50.84
2016-08-25T07:40:50.464Z,50.84
2016-08-25T07:41:16.249Z,50.94
2016-08-25T07:41:41.794Z,50.84
2016-08-25T07:42:07.351Z,50.84
2016-08-25T07:42:32.897Z,50.84
2016-08-25T07:42:58.450Z,50.84
2016-08-25T07:43:24.024Z,50.84
2016-08-25T07:43:49.575Z,50.84
2016-08-25T07:44:15.136Z,50.74
2016-08-25T07:44:40.761Z,51.04
2016-08-25T07:45:06.327Z,50.84
2016-08-25T07:45:31.888Z,51.04
2016-08-25T07:45:57.488Z,50.84
2016-08-25T07:46:23.046Z,50.84
2016-08-25T07:46:48.596Z,50.74
2016-08-25T07:47:14.175Z,51.04
2016-08-25T07:47:39.741Z,50.74
2016-08-25T07:48:05.316Z,51.04
2016-08-25T07:48:30.891Z,50.84
2016-08-25T07:48:56.474Z,51.04
2016-08-25T07:49:22.040Z,50.84
2016-08-25T07:49:47.595Z,50.74
2016-08-25T07:50:13.175Z,51.04
2016-08-25T07:50:38.723Z,51.04
2016-08-25T07:51:04.293Z,51.13
2016-08-25T07:51:29.872Z,50.84
2016-08-25T07:51:55.424Z,50.74
2016-08-25T07:52:21.094Z,50.74
2016-08-25T07:52:46.673Z,50.74
2016-08-25T07:53:12.236Z,50.84
2016-08-25T07:53:37.803Z,50.84
2016-08-25T07:54:03.372Z,51.04
2016-08-25T07:54:28.919Z,51.04
2016-08-25T07:54:54.485Z,50.84
2016-08-25T07:55:20.095Z,50.74
2016-08-25T07:55:45.685Z,50.74
2016-08-25T07:56:11.250Z,50.84
2016-08-25T07:56:36.815Z,50.74
2016-08-25T07:57:02.389Z,50.94
2016-08-25T07:57:27.978Z,50.94
2016-08-25T07:57:53.551Z,50.74
2016-08-25T07:58:19.119Z,50.84
2016-08-25T07:58:44.686Z,50.84
2016-08-25T07:59:10.256Z,50.84
2016-08-25T07:59:35.833Z,50.84
2016-08-25T08:00:01.384Z,51.04
2016-08-25T08:00:26.986Z,51.04
2016-08-25T08:00:52.537Z,50.94
2016-08-25T08:01:18.125Z,50.74
2016-08-25T08:01:43.659Z,50.84
2016-08-25T08:02:09.225Z,51.23
2016-08-25T08:02:34.804Z,51.04
2016-08-25T08:03:00.371Z,51.32
2016-08-25T08:03:25.970Z,51.13
2016-08-25T08:03:51.508Z,51.04
2016-08-25T08:04:17.063Z,51.04
2016-08-25T08:04:42.618Z,50.84
2016-08-25T08:05:08.214Z,50.84
2016-08-25T08:05:33.771Z,50.84
2016-08-25T08:05:59.376Z,50.96
2016-08-25T08:06:24.963Z,51.04
2016-08-25T08:06:50.575Z,50.84
2016-08-25T08:07:16.124Z,50.84
2016-08-25T08:07:41.692Z,50.94
2016-08-25T08:08:07.280Z,50.84
2016-08-25T08:08:32.863Z,51.04
2016-08-25T08:08:58.443Z,50.84
2016-08-25T08:09:23.996Z,51.32
2016-08-25T08:09:49.564Z,51.23
2016-08-25T08:10:15.122Z,51.23
2016-08-25T08:10:40.685Z,51.32
2016-08-25T08:11:06.364Z,51.04
2016-08-25T08:11:31.941Z,51.04
2016-08-25T08:11:57.554Z,51.32
2016-08-25T08:12:23.179Z,51.04
2016-08-25T08:12:48.732Z,51.04
2016-08-25T08:13:14.293Z,51.04
2016-08-25T08:13:39.956Z,51.32
2016-08-25T08:14:05.525Z,51.06
2016-08-25T08:14:31.076Z,51.04
2016-08-25T08:14:56.646Z,51.23
2016-08-25T08:15:22.217Z,51.06
2016-08-25T08:15:47.827Z,51.04
2016-08-25T08:16:13.393Z,51.42
2016-08-25T08:16:38.979Z,51.42
2016-08-25T08:17:04.549Z,51.06
2016-08-25T08:17:30.145Z,51.32
2016-08-25T08:17:55.734Z,50.87
2016-08-25T08:18:21.316Z,50.96
2016-08-25T08:18:46.920Z,50.87
2016-08-25T08:19:12.559Z,51.06
2016-08-25T08:19:38.124Z,50.96
2016-08-25T08:20:03.687Z,51.06
2016-08-25T08:20:29.277Z,50.87
2016-08-25T08:20:54.867Z,50.84
2016-08-25T08:21:20.426Z,50.96
2016-08-25T08:21:46.136Z,51.04
2016-08-25T08:22:11.696Z,50.96
2016-08-25T08:22:37.281Z,50.84
2016-08-25T08:23:02.966Z,51.06
2016-08-25T08:23:28.516Z,50.87
2016-08-25T08:23:54.066Z,50.94
2016-08-25T08:24:19.656Z,50.87
2016-08-25T08:24:45.234Z,51.06
2016-08-25T08:25:10.821Z,51.06
2016-08-25T08:25:36.379Z,51.16
2016-08-25T08:26:01.949Z,50.87
2016-08-25T08:26:27.527Z,51.13
2016-08-25T08:26:53.075Z,51.06
2016-08-25T08:27:18.628Z,51.06
2016-08-25T08:27:44.301Z,50.96
2016-08-25T08:28:09.882Z,51.35
2016-08-25T08:28:35.437Z,51.35
2016-08-25T08:29:01.034Z,51.45
2016-08-25T08:29:26.736Z,51.06
2016-08-25T08:29:52.304Z,51.16
2016-08-25T08:30:17.877Z,51.16
2016-08-25T08:30:43.455Z,51.35
2016-08-25T08:31:09.100Z,51.25
2016-08-25T08:31:34.665Z,51.25
2016-08-25T08:32:00.219Z,51.06
2016-08-25T08:32:25.841Z,51.45
2016-08-25T08:32:51.384Z,51.06
2016-08-25T08:33:16.959Z,50.96
2016-08-25T08:33:42.516Z,51.06
2016-08-25T08:34:08.078Z,51.06
2016-08-25T08:34:33.693Z,51.06
2016-08-25T08:34:59.251Z,51.16
2016-08-25T08:35:24.826Z,51.25
2016-08-25T08:35:50.389Z,51.06
2016-08-25T08:36:15.944Z,51.25
2016-08-25T08:36:41.505Z,51.25
2016-08-25T08:37:07.108Z,51.06
2016-08-25T08:37:32.703Z,51.25
2016-08-25T08:37:58.257Z,51.25
2016-08-25T08:38:23.844Z,50.96
2016-08-25T08:38:49.429Z,51.45
2016-08-25T08:39:15.008Z,51.25
2016-08-25T08:39:40.568Z,51.16
2016-08-25T08:40:06.155Z,51.16
2016-08-25T08:40:31.757Z,51.25
2016-08-25T08:40:57.344Z,51.06
2016-08-25T08:41:22.903Z,51.06
2016-08-25T08:41:48.479Z,51.06
2016-08-25T08:42:14.080Z,51.06
2016-08-25T08:42:39.647Z,51.25
2016-08-25T08:43:05.222Z,51.25
2016-08-25T08:43:30.877Z,51.25
2016-08-25T08:43:56.446Z,51.16
2016-08-25T08:44:22.088Z,51.25
2016-08-25T08:44:47.714Z,51.16
2016-08-25T08:45:13.285Z,50.96
2016-08-25T08:45:38.887Z,50.96
2016-08-25T08:46:04.460Z,51.25
2016-08-25T08:46:30.032Z,50.96
2016-08-25T08:46:55.588Z,50.96